Time;durP1;ratioP1;P1;durP2;ratioP2;P2;SDS_P1;SDS_P2;PMS_P1;PMS_P2;Temp;Humidity;BMP_temperature;BMP_pressure;BME280_temperature;BME280_humidity;BME280_pressure;Samples;Min_cycle;Max_cycle;Signal;HPM_P1;HPM_P2
2023/01/05 00:01:40;;;;;;;17.80;3.90;;;;;;;;;;5070044;28;20376;-61
2023/01/05 00:04:06;;;;;;;17.00;3.92;;;;;;;;;;5070877;28;20063;-63
2023/01/05 00:06:32;;;;;;;22.05;3.63;;;;;;;;;;5063405;28;20090;-62
2023/01/05 00:08:58;;;;;;;15.25;3.28;;;;;;;;;;5071929;28;20032;-62
2023/01/05 00:22:37;;;;;;;14.27;2.75;;;;;;;;;;5067419;28;20051;-62
2023/01/05 00:25:02;;;;;;;21.65;4.35;;;;;;;;;;5070256;28;20032;-62
2023/01/05 00:27:29;;;;;;;11.77;2.85;;;;;;;;;;5071175;28;20021;-61
2023/01/05 00:29:55;;;;;;;14.18;3.58;;;;;;;;;;5070986;28;20040;-61
2023/01/05 00:32:20;;;;;;;9.20;2.10;;;;;;;;;;5068643;28;20162;-66
2023/01/05 00:34:46;;;;;;;13.75;3.05;;;;;;;;;;5070649;28;20397;-62
2023/01/05 00:37:11;;;;;;;12.45;2.97;;;;;;;;;;5062155;28;20032;-61
2023/01/05 00:39:37;;;;;;;18.40;3.83;;;;;;;;;;5061839;28;20036;-61
2023/01/05 00:42:02;;;;;;;17.38;3.10;;;;;;;;;;5056464;28;20032;-62
2023/01/05 00:44:28;;;;;;;18.38;3.60;;;;;;;;;;5069139;28;20042;-61
2023/01/05 00:46:53;;;;;;;18.30;2.92;;;;;;;;;;5073763;28;20032;-61
2023/01/05 00:49:19;;;;;;;16.42;2.80;;;;;;;;;;5069753;28;20427;-61
2023/01/05 00:51:44;;;;;;;16.55;3.40;;;;;;;;;;5062387;28;20036;-61
2023/01/05 00:54:09;;;;;;;12.55;2.90;;;;;;;;;;5066987;28;20103;-61
2023/01/05 00:56:35;;;;;;;18.40;3.78;;;;;;;;;;5067686;28;20090;-61
2023/01/05 00:59:00;;;;;;;27.40;2.78;;;;;;;;;;5050949;28;20474;-61
2023/01/05 01:01:26;;;;;;;18.55;3.40;;;;;;;;;;5045611;28;20033;-61
2023/01/05 01:03:51;;;;;;;14.70;2.90;;;;;;;;;;5038932;28;20071;-60
2023/01/05 01:06:17;;;;;;;17.65;3.35;;;;;;;;;;5044316;28;20083;-61
2023/01/05 01:08:43;;;;;;;19.80;3.50;;;;;;;;;;5039421;28;20041;-61
2023/01/05 01:11:09;;;;;;;17.52;3.22;;;;;;;;;;5049739;28;20045;-62
2023/01/05 01:13:35;;;;;;;20.35;3.08;;;;;;;;;;5049012;28;20040;-62
2023/01/05 01:16:14;;;;;;;13.77;3.17;;;;;;;;;;5031125;28;20090;-61
2023/01/05 01:18:40;;;;;;;14.70;3.70;;;;;;;;;;5050887;28;20041;-61
2023/01/05 01:21:07;;;;;;;11.60;2.97;;;;;;;;;;5050110;28;20028;-62
2023/01/05 01:23:36;;;;;;;17.27;3.33;;;;;;;;;;5047001;28;20047;-61
2023/01/05 01:26:07;;;;;;;14.57;3.15;;;;;;;;;;5050591;28;20053;-63
2023/01/05 01:28:33;;;;;;;16.55;3.83;;;;;;;;;;5016260;28;20087;-61
2023/01/05 01:30:59;;;;;;;18.40;2.88;;;;;;;;;;5052036;28;20039;-62
2023/01/05 01:33:24;;;;;;;21.40;3.92;;;;;;;;;;5056752;28;20119;-62
2023/01/05 01:35:49;;;;;;;22.90;3.97;;;;;;;;;;5051523;28;20036;-60
2023/01/05 01:38:15;;;;;;;15.43;2.42;;;;;;;;;;5047862;28;20047;-61
2023/01/05 01:40:43;;;;;;;18.92;3.33;;;;;;;;;;5049716;28;20036;-62
2023/01/05 01:43:38;;;;;;;14.25;2.97;;;;;;;;;;5025806;28;20416;-62
2023/01/05 01:46:04;;;;;;;19.10;3.00;;;;;;;;;;5034121;28;20047;-61
2023/01/05 01:48:30;;;;;;;17.70;3.40;;;;;;;;;;5027995;28;20669;-61
2023/01/05 01:50:56;;;;;;;17.55;3.15;;;;;;;;;;5043241;28;20524;-61
2023/01/05 01:53:36;;;;;;;21.20;3.55;;;;;;;;;;5048196;28;20037;-61
2023/01/05 01:56:04;;;;;;;17.42;3.17;;;;;;;;;;5050852;28;20029;-62
2023/01/05 01:58:31;;;;;;;12.45;3.58;;;;;;;;;;5057924;28;20093;-61
2023/01/05 02:01:00;;;;;;;13.70;3.40;;;;;;;;;;5064095;28;20025;-61
2023/01/05 02:03:27;;;;;;;21.13;3.97;;;;;;;;;;5061550;28;20036;-60
2023/01/05 02:05:54;;;;;;;16.95;3.38;;;;;;;;;;5069687;28;20029;-61
2023/01/05 02:08:30;;;;;;;18.80;3.10;;;;;;;;;;5066075;28;20032;-61
2023/01/05 02:11:10;;;;;;;10.95;2.97;;;;;;;;;;5054587;28;20480;-60
2023/01/05 02:14:16;;;;;;;15.77;2.97;;;;;;;;;;5059587;28;20028;-60
2023/01/05 02:16:56;;;;;;;14.73;3.10;;;;;;;;;;5036967;28;20041;-60
2023/01/05 02:19:40;;;;;;;16.02;2.83;;;;;;;;;;5068628;28;20465;-60
2023/01/05 02:22:36;;;;;;;14.63;3.42;;;;;;;;;;5069439;28;20111;-60
2023/01/05 02:25:27;;;;;;;12.85;2.55;;;;;;;;;;5069871;28;20402;-60
2023/01/05 02:28:29;;;;;;;12.35;2.90;;;;;;;;;;5078204;28;20089;-60
2023/01/05 02:30:58;;;;;;;14.90;3.47;;;;;;;;;;5067848;28;20029;-60
2023/01/05 02:33:38;;;;;;;18.98;3.58;;;;;;;;;;5068225;28;20029;-60
2023/01/05 02:36:18;;;;;;;12.50;3.25;;;;;;;;;;5070208;28;20047;-60
2023/01/05 02:38:59;;;;;;;9.52;2.75;;;;;;;;;;5056738;28;20058;-61
2023/01/05 02:41:36;;;;;;;13.05;3.28;;;;;;;;;;5065180;28;20036;-61
2023/01/05 02:44:02;;;;;;;12.30;2.80;;;;;;;;;;5063908;28;20470;-60
2023/01/05 02:46:28;;;;;;;18.90;3.05;;;;;;;;;;5065763;28;20073;-60
2023/01/05 02:48:57;;;;;;;16.20;2.65;;;;;;;;;;5073089;28;20376;-61
2023/01/05 02:51:28;;;;;;;16.00;3.08;;;;;;;;;;5065376;28;20040;-61
2023/01/05 02:54:13;;;;;;;11.40;2.95;;;;;;;;;;5057868;28;20163;-61
2023/01/05 02:56:49;;;;;;;16.27;3.10;;;;;;;;;;5070886;28;20028;-61
2023/01/05 02:59:21;;;;;;;16.77;3.10;;;;;;;;;;5072747;28;20056;-63
2023/01/05 03:01:53;;;;;;;11.73;2.38;;;;;;;;;;5070446;28;20059;-60
2023/01/05 03:04:26;;;;;;;13.60;3.10;;;;;;;;;;5072509;28;20032;-62
2023/01/05 03:06:55;;;;;;;18.30;3.53;;;;;;;;;;5068643;28;20040;-61
2023/01/05 03:09:28;;;;;;;11.40;3.10;;;;;;;;;;5068586;28;20512;-62
2023/01/05 03:15:19;;;;;;;10.57;2.95;;;;;;;;;;5062013;28;20046;-60
2023/01/05 03:17:48;;;;;;;13.68;3.20;;;;;;;;;;5062612;28;20460;-61
2023/01/05 03:20:17;;;;;;;15.75;3.92;;;;;;;;;;5077966;28;20020;-62
2023/01/05 03:37:22;;;;;;;21.88;3.42;;;;;;;;;;5053661;28;20173;-64
2023/01/05 03:39:47;;;;;;;23.13;3.90;;;;;;;;;;5026954;28;20040;-64
2023/01/05 03:42:14;;;;;;;16.38;2.70;;;;;;;;;;5065411;28;20411;-63
2023/01/05 03:44:43;;;;;;;22.85;3.70;;;;;;;;;;5065493;28;20029;-64
2023/01/05 03:47:09;;;;;;;23.30;4.50;;;;;;;;;;5064028;28;20528;-63
2023/01/05 03:49:35;;;;;;;20.67;3.67;;;;;;;;;;5070890;28;20112;-63
2023/01/05 03:52:01;;;;;;;19.80;4.10;;;;;;;;;;5070665;28;20043;-63
2023/01/05 03:54:26;;;;;;;17.00;3.03;;;;;;;;;;5069048;28;20024;-63
2023/01/05 03:56:51;;;;;;;19.75;3.90;;;;;;;;;;5070421;28;20105;-63
2023/01/05 03:59:17;;;;;;;16.63;3.90;;;;;;;;;;5072918;28;20048;-64
2023/01/05 04:01:42;;;;;;;15.10;3.20;;;;;;;;;;5070109;28;20033;-62
2023/01/05 04:04:08;;;;;;;28.35;5.45;;;;;;;;;;5073040;28;20051;-62
2023/01/05 04:06:33;;;;;;;15.98;3.63;;;;;;;;;;5070398;28;20086;-62
2023/01/05 04:08:59;;;;;;;21.20;4.70;;;;;;;;;;5061502;28;20033;-62
2023/01/05 04:11:24;;;;;;;16.10;3.47;;;;;;;;;;5058027;28;20040;-62
2023/01/05 04:13:50;;;;;;;16.50;3.65;;;;;;;;;;5072009;28;20461;-62
2023/01/05 04:16:16;;;;;;;16.75;3.90;;;;;;;;;;5071323;28;20032;-62
2023/01/05 04:18:41;;;;;;;13.10;3.55;;;;;;;;;;5071423;28;20040;-62
2023/01/05 04:21:07;;;;;;;20.00;3.80;;;;;;;;;;5071087;28;20039;-62
2023/01/05 04:23:33;;;;;;;23.98;4.28;;;;;;;;;;5070291;28;20028;-62
2023/01/05 04:25:58;;;;;;;17.83;4.30;;;;;;;;;;5066339;28;20029;-62
2023/01/05 04:28:23;;;;;;;21.67;4.25;;;;;;;;;;5060441;28;20044;-62
2023/01/05 04:30:52;;;;;;;13.70;3.00;;;;;;;;;;5069209;28;20454;-62
2023/01/05 04:33:18;;;;;;;14.73;3.40;;;;;;;;;;5081581;28;20388;-62
2023/01/05 04:35:43;;;;;;;16.50;4.03;;;;;;;;;;5070650;28;20039;-62
2023/01/05 04:38:10;;;;;;;14.52;3.88;;;;;;;;;;5071153;28;20033;-62
2023/01/05 04:40:35;;;;;;;21.45;4.07;;;;;;;;;;5068941;28;20063;-62
2023/01/05 04:43:00;;;;;;;22.67;4.15;;;;;;;;;;5072268;28;20465;-62
2023/01/05 04:45:26;;;;;;;15.80;3.33;;;;;;;;;;5061474;28;20029;-63
2023/01/05 04:47:51;;;;;;;25.35;4.28;;;;;;;;;;5064063;28;20460;-62
2023/01/05 04:50:17;;;;;;;17.17;3.05;;;;;;;;;;5075481;28;20040;-63
2023/01/05 04:52:42;;;;;;;19.83;4.18;;;;;;;;;;5072125;28;20032;-63
2023/01/05 04:55:08;;;;;;;25.02;4.32;;;;;;;;;;5075014;28;20028;-63
2023/01/05 04:57:34;;;;;;;17.67;3.85;;;;;;;;;;5071496;28;20036;-63
2023/01/05 04:59:59;;;;;;;10.10;2.72;;;;;;;;;;5070644;28;21314;-63
2023/01/05 05:02:25;;;;;;;20.00;3.83;;;;;;;;;;5076265;28;20017;-63
2023/01/05 05:04:51;;;;;;;12.93;2.70;;;;;;;;;;5060086;28;20033;-63
2023/01/05 05:07:16;;;;;;;17.02;3.65;;;;;;;;;;5067599;28;20487;-63
2023/01/05 05:09:41;;;;;;;18.92;3.53;;;;;;;;;;5068701;28;20040;-63
2023/01/05 05:12:07;;;;;;;18.58;4.15;;;;;;;;;;5070606;28;20020;-63
2023/01/05 05:14:32;;;;;;;19.20;4.57;;;;;;;;;;5069199;28;20028;-63
2023/01/05 05:16:57;;;;;;;22.42;3.88;;;;;;;;;;5069554;28;20059;-63
2023/01/05 05:19:23;;;;;;;22.00;3.65;;;;;;;;;;5070073;28;20039;-63
2023/01/05 05:21:48;;;;;;;23.45;3.92;;;;;;;;;;5067528;28;20029;-63
2023/01/05 05:24:13;;;;;;;22.52;4.60;;;;;;;;;;5070687;28;20111;-63
2023/01/05 05:26:39;;;;;;;25.42;4.35;;;;;;;;;;5069753;28;20461;-63
2023/01/05 05:29:04;;;;;;;23.90;4.43;;;;;;;;;;5075164;28;20117;-63
2023/01/05 05:31:30;;;;;;;18.65;4.28;;;;;;;;;;5067717;28;20041;-63
2023/01/05 05:33:55;;;;;;;22.88;4.78;;;;;;;;;;5070323;28;20453;-63
2023/01/05 05:36:21;;;;;;;23.23;4.50;;;;;;;;;;5074091;28;20059;-63
2023/01/05 05:38:46;;;;;;;23.17;4.90;;;;;;;;;;5069698;28;20107;-63
2023/01/05 05:41:11;;;;;;;20.23;4.40;;;;;;;;;;5068349;28;20111;-62
2023/01/05 05:43:37;;;;;;;20.95;5.40;;;;;;;;;;5066754;28;20025;-63
2023/01/05 05:46:02;;;;;;;12.85;3.20;;;;;;;;;;5070406;28;20047;-62
2023/01/05 05:48:28;;;;;;;14.70;2.95;;;;;;;;;;5070995;28;20024;-62
2023/01/05 05:50:53;;;;;;;20.05;4.55;;;;;;;;;;5055503;28;20025;-62
2023/01/05 05:53:19;;;;;;;12.50;3.28;;;;;;;;;;5091930;28;20111;-62
2023/01/05 05:55:49;;;;;;;22.85;4.38;;;;;;;;;;5073856;28;20190;-61
2023/01/05 05:58:14;;;;;;;21.92;4.28;;;;;;;;;;5071372;28;20059;-61
2023/01/05 06:00:40;;;;;;;24.92;4.75;;;;;;;;;;5069006;28;20036;-62
2023/01/05 06:03:05;;;;;;;25.60;5.45;;;;;;;;;;5072862;28;20996;-63
2023/01/05 06:05:31;;;;;;;30.73;5.95;;;;;;;;;;5081700;28;20079;-62
2023/01/05 06:07:56;;;;;;;30.42;5.03;;;;;;;;;;5070117;28;20529;-61
2023/01/05 06:10:22;;;;;;;18.65;4.97;;;;;;;;;;5071434;28;20025;-61
2023/01/05 06:12:47;;;;;;;25.50;5.72;;;;;;;;;;5070456;28;20032;-61
2023/01/05 06:15:13;;;;;;;24.30;5.07;;;;;;;;;;5086515;28;20029;-61
2023/01/05 06:17:38;;;;;;;21.60;5.15;;;;;;;;;;5070691;28;20028;-61
2023/01/05 06:20:05;;;;;;;21.15;4.60;;;;;;;;;;5070811;28;20040;-61
2023/01/05 06:22:30;;;;;;;29.50;5.53;;;;;;;;;;5069415;28;20040;-52
2023/01/05 06:24:56;;;;;;;21.40;5.22;;;;;;;;;;5070072;28;20029;-54
2023/01/05 06:27:21;;;;;;;23.73;5.43;;;;;;;;;;5071052;28;20509;-57
2023/01/05 06:29:46;;;;;;;24.08;5.78;;;;;;;;;;5061425;28;20035;-60
2023/01/05 06:32:12;;;;;;;26.95;5.68;;;;;;;;;;5076904;28;20033;-60
2023/01/05 06:34:37;;;;;;;32.33;5.70;;;;;;;;;;5066217;28;20037;-60
2023/01/05 06:37:05;;;;;;;30.00;6.32;;;;;;;;;;5068810;28;20610;-60
2023/01/05 06:39:30;;;;;;;26.92;5.78;;;;;;;;;;5054733;28;20059;-60
2023/01/05 06:41:56;;;;;;;24.73;5.65;;;;;;;;;;5084288;28;20065;-60
2023/01/05 06:44:21;;;;;;;28.77;6.65;;;;;;;;;;5074312;28;20028;-61
2023/01/05 06:46:47;;;;;;;23.50;6.10;;;;;;;;;;5070767;28;20036;-61
2023/01/05 06:49:13;;;;;;;35.72;6.88;;;;;;;;;;5087173;28;20525;-60
2023/01/05 06:51:39;;;;;;;29.38;6.13;;;;;;;;;;5093910;28;20055;-60
2023/01/05 06:54:05;;;;;;;23.08;4.85;;;;;;;;;;5090988;28;20456;-60
2023/01/05 06:56:30;;;;;;;33.85;5.65;;;;;;;;;;5093740;28;20085;-61
2023/01/05 06:58:56;;;;;;;23.98;5.72;;;;;;;;;;5074220;28;20036;-59
2023/01/05 07:01:21;;;;;;;27.45;6.03;;;;;;;;;;5074274;28;20376;-59
2023/01/05 07:03:46;;;;;;;27.85;6.40;;;;;;;;;;5073094;28;20025;-59
2023/01/05 07:06:13;;;;;;;19.13;5.07;;;;;;;;;;5074437;28;20354;-57
2023/01/05 07:08:39;;;;;;;31.58;5.75;;;;;;;;;;5072256;28;20040;-59
2023/01/05 07:11:04;;;;;;;35.42;6.55;;;;;;;;;;5073708;28;20028;-59
2023/01/05 07:13:29;;;;;;;16.58;5.05;;;;;;;;;;5068679;28;20033;-61
2023/01/05 07:15:55;;;;;;;23.65;6.65;;;;;;;;;;5073302;28;20037;-60
2023/01/05 07:18:20;;;;;;;31.70;6.82;;;;;;;;;;5076638;28;20047;-60
2023/01/05 07:20:46;;;;;;;30.73;7.47;;;;;;;;;;5073538;28;20037;-60
2023/01/05 07:23:11;;;;;;;22.00;6.05;;;;;;;;;;5072897;28;20039;-61
2023/01/05 07:25:36;;;;;;;36.50;7.40;;;;;;;;;;5055137;28;20041;-60
2023/01/05 07:28:02;;;;;;;30.88;7.25;;;;;;;;;;5073708;28;20024;-61
2023/01/05 07:30:27;;;;;;;22.88;6.25;;;;;;;;;;5070956;28;20354;-61
2023/01/05 07:32:57;;;;;;;21.63;6.63;;;;;;;;;;5055354;28;20025;-60
2023/01/05 07:35:23;;;;;;;28.85;7.75;;;;;;;;;;5084302;28;20028;-61
2023/01/05 07:37:48;;;;;;;24.17;6.60;;;;;;;;;;5074468;28;20095;-61
2023/01/05 07:40:13;;;;;;;27.88;7.20;;;;;;;;;;5071203;28;20032;-61
2023/01/05 07:42:39;;;;;;;31.85;7.72;;;;;;;;;;5073916;28;20067;-61
2023/01/05 07:45:05;;;;;;;25.98;8.38;;;;;;;;;;5054052;28;20036;-61
2023/01/05 07:47:31;;;;;;;26.73;8.32;;;;;;;;;;5072535;28;20036;-61
2023/01/05 07:49:56;;;;;;;29.15;7.78;;;;;;;;;;5072390;28;20028;-61
2023/01/05 07:52:22;;;;;;;26.48;6.80;;;;;;;;;;5073478;28;20037;-61
2023/01/05 07:54:47;;;;;;;33.15;8.65;;;;;;;;;;5072648;28;20038;-60
2023/01/05 07:57:12;;;;;;;32.97;9.15;;;;;;;;;;5072872;28;20064;-60
2023/01/05 07:59:38;;;;;;;30.38;8.68;;;;;;;;;;5070184;28;20393;-59
2023/01/05 08:02:04;;;;;;;22.00;6.00;;;;;;;;;;5072702;28;20424;-61
2023/01/05 08:04:29;;;;;;;18.13;5.53;;;;;;;;;;5072908;28;20035;-61
2023/01/05 08:06:55;;;;;;;24.08;6.95;;;;;;;;;;5072558;28;20036;-61
2023/01/05 08:12:04;;;;;;;24.35;6.05;;;;;;;;;;5072406;28;20462;-61
2023/01/05 08:14:30;;;;;;;24.63;6.28;;;;;;;;;;5071006;28;20052;-61
2023/01/05 08:16:55;;;;;;;27.45;7.68;;;;;;;;;;5069898;28;20039;-61
2023/01/05 08:19:20;;;;;;;17.23;5.65;;;;;;;;;;5085065;28;20442;-61
2023/01/05 08:21:46;;;;;;;18.15;5.47;;;;;;;;;;5085321;28;20114;-61
2023/01/05 08:24:11;;;;;;;29.90;7.65;;;;;;;;;;5083514;28;20024;-62
2023/01/05 08:26:37;;;;;;;22.35;5.80;;;;;;;;;;5076847;28;20039;-61
2023/01/05 08:29:02;;;;;;;27.13;8.30;;;;;;;;;;5090459;28;20465;-61
2023/01/05 08:31:29;;;;;;;33.85;7.47;;;;;;;;;;5085820;28;20028;-61
2023/01/05 08:33:58;;;;;;;32.20;6.22;;;;;;;;;;5070139;28;20162;-60
2023/01/05 08:36:24;;;;;;;31.58;7.25;;;;;;;;;;5076694;28;20036;-61
2023/01/05 08:38:51;;;;;;;20.92;5.70;;;;;;;;;;5058322;28;20025;-61
2023/01/05 08:41:19;;;;;;;22.63;5.75;;;;;;;;;;5061395;28;20037;-60
2023/01/05 08:43:49;;;;;;;27.30;5.70;;;;;;;;;;5068721;28;20077;-61
2023/01/05 08:46:14;;;;;;;26.52;5.93;;;;;;;;;;5072584;28;20025;-61
2023/01/05 08:48:40;;;;;;;29.60;6.45;;;;;;;;;;5071474;28;20035;-61
2023/01/05 08:51:06;;;;;;;23.17;5.50;;;;;;;;;;5071767;28;20036;-59
2023/01/05 08:53:32;;;;;;;26.63;5.53;;;;;;;;;;5071691;28;20342;-61
2023/01/05 08:55:58;;;;;;;25.55;6.07;;;;;;;;;;5072365;28;20085;-61
2023/01/05 08:58:23;;;;;;;30.25;6.63;;;;;;;;;;5070098;28;20056;-61
2023/01/05 09:00:48;;;;;;;30.17;6.03;;;;;;;;;;5069676;28;20035;-61
2023/01/05 09:03:14;;;;;;;26.55;6.28;;;;;;;;;;5068997;28;20079;-61
2023/01/05 09:05:39;;;;;;;26.17;5.97;;;;;;;;;;5070043;28;20028;-61
2023/01/05 09:08:05;;;;;;;28.50;6.32;;;;;;;;;;5070595;28;20473;-61
2023/01/05 09:10:30;;;;;;;32.95;6.72;;;;;;;;;;5071838;28;20097;-61
2023/01/05 09:12:55;;;;;;;29.38;5.80;;;;;;;;;;5071558;28;20032;-61
2023/01/05 09:15:21;;;;;;;20.00;4.50;;;;;;;;;;5071376;28;20180;-61
2023/01/05 09:17:46;;;;;;;28.50;6.40;;;;;;;;;;5069648;28;20044;-61
2023/01/05 09:20:12;;;;;;;29.17;6.22;;;;;;;;;;5082859;28;20525;-61
2023/01/05 09:22:37;;;;;;;29.38;5.50;;;;;;;;;;5070868;28;20111;-61
2023/01/05 09:25:03;;;;;;;23.45;5.65;;;;;;;;;;5070474;28;20031;-61
2023/01/05 09:27:29;;;;;;;24.65;5.00;;;;;;;;;;5068077;28;20040;-61
2023/01/05 09:29:54;;;;;;;26.48;5.18;;;;;;;;;;5069341;28;20536;-60
2023/01/05 09:32:19;;;;;;;30.33;6.50;;;;;;;;;;5066935;28;20037;-61
2023/01/05 09:34:45;;;;;;;30.95;5.20;;;;;;;;;;5070607;28;20028;-60
2023/01/05 09:37:10;;;;;;;24.90;5.88;;;;;;;;;;5071705;28;20043;-60
2023/01/05 09:39:36;;;;;;;24.67;5.57;;;;;;;;;;5071006;28;20102;-61
2023/01/05 09:42:05;;;;;;;21.08;5.28;;;;;;;;;;5081668;28;20090;-61
2023/01/05 09:44:39;;;;;;;24.83;5.82;;;;;;;;;;5050504;28;20086;-61
2023/01/05 09:47:26;;;;;;;22.40;5.13;;;;;;;;;;5052271;28;20029;-61
2023/01/05 09:49:52;;;;;;;28.75;5.55;;;;;;;;;;5050934;28;20041;-61
2023/01/05 09:52:21;;;;;;;24.75;5.50;;;;;;;;;;5051315;28;20040;-61
2023/01/05 09:54:46;;;;;;;24.75;4.72;;;;;;;;;;5050572;28;20037;-61
2023/01/05 09:57:24;;;;;;;18.77;5.15;;;;;;;;;;5051744;28;20021;-61
2023/01/05 10:00:01;;;;;;;22.92;5.57;;;;;;;;;;5050885;28;20037;-62
2023/01/05 10:02:38;;;;;;;24.23;5.05;;;;;;;;;;5056568;28;20485;-62
2023/01/05 10:05:05;;;;;;;20.95;4.28;;;;;;;;;;5070773;28;20495;-62
2023/01/05 10:07:44;;;;;;;22.58;5.32;;;;;;;;;;5075474;28;20036;-63
2023/01/05 10:10:26;;;;;;;22.50;4.70;;;;;;;;;;5075747;28;20124;-63
2023/01/05 10:13:02;;;;;;;21.70;4.93;;;;;;;;;;5074758;28;20112;-62
2023/01/05 10:15:32;;;;;;;27.98;4.63;;;;;;;;;;5075641;28;20060;-62
2023/01/05 10:17:59;;;;;;;27.50;4.43;;;;;;;;;;5074293;28;20520;-61
2023/01/05 10:20:45;;;;;;;28.08;4.70;;;;;;;;;;5075515;28;20071;-61
2023/01/05 10:23:40;;;;;;;19.92;5.38;;;;;;;;;;5053609;28;20048;-60
2023/01/05 10:26:24;;;;;;;23.52;5.25;;;;;;;;;;5071572;28;20370;-60
2023/01/05 10:28:55;;;;;;;26.15;5.35;;;;;;;;;;5072303;28;20025;-59
2023/01/05 10:31:30;;;;;;;23.10;4.75;;;;;;;;;;5073693;28;20043;-59
2023/01/05 10:34:12;;;;;;;22.85;4.80;;;;;;;;;;5074205;28;20025;-59
2023/01/05 10:37:16;;;;;;;27.25;4.32;;;;;;;;;;5074639;28;20035;-62
2023/01/05 10:39:50;;;;;;;28.05;5.32;;;;;;;;;;5071071;28;20118;-60
2023/01/05 10:42:22;;;;;;;25.55;5.00;;;;;;;;;;5075144;28;20146;-58
2023/01/05 10:44:58;;;;;;;24.15;4.55;;;;;;;;;;5072476;28;20036;-60
2023/01/05 10:47:25;;;;;;;21.27;4.30;;;;;;;;;;5054980;28;20040;-59
2023/01/05 10:49:51;;;;;;;22.70;5.13;;;;;;;;;;5054092;28;20040;-58
2023/01/05 10:52:19;;;;;;;17.27;3.92;;;;;;;;;;5054759;28;20037;-58
2023/01/05 10:55:14;;;;;;;24.98;4.68;;;;;;;;;;5054012;28;20458;-58
2023/01/05 10:57:40;;;;;;;26.83;5.32;;;;;;;;;;5052138;28;20040;-59
2023/01/05 11:00:18;;;;;;;21.13;4.82;;;;;;;;;;5070478;28;20048;-58
2023/01/05 11:02:47;;;;;;;16.05;4.15;;;;;;;;;;5071210;28;20101;-58
2023/01/05 11:05:24;;;;;;;23.73;4.22;;;;;;;;;;5073432;28;20039;-55
2023/01/05 11:07:53;;;;;;;24.70;4.82;;;;;;;;;;5072538;28;20128;-56
2023/01/05 11:10:46;;;;;;;18.88;4.38;;;;;;;;;;5073143;28;20032;-57
2023/01/05 11:13:15;;;;;;;25.35;5.18;;;;;;;;;;5073005;28;20033;-57
2023/01/05 11:15:44;;;;;;;27.92;5.35;;;;;;;;;;5072890;28;20488;-57
2023/01/05 11:18:39;;;;;;;25.13;4.88;;;;;;;;;;5066702;28;20033;-57
2023/01/05 11:21:07;;;;;;;28.08;5.43;;;;;;;;;;5058052;28;20515;-59
2023/01/05 11:23:39;;;;;;;24.30;5.47;;;;;;;;;;5074892;28;20114;-61
2023/01/05 11:26:19;;;;;;;24.40;5.30;;;;;;;;;;5071068;28;20036;-57
2023/01/05 11:29:10;;;;;;;22.30;4.68;;;;;;;;;;5071512;28;20025;-58
2023/01/05 11:31:58;;;;;;;24.33;5.95;;;;;;;;;;5064981;28;20041;-60
2023/01/05 11:34:23;;;;;;;21.83;5.22;;;;;;;;;;5062101;28;20033;-60
2023/01/05 11:36:55;;;;;;;14.40;3.88;;;;;;;;;;5069878;28;20488;-61
2023/01/05 11:39:30;;;;;;;15.43;4.10;;;;;;;;;;5067056;28;20029;-60
2023/01/05 11:42:32;;;;;;;17.33;3.97;;;;;;;;;;5063330;28;20191;-60
2023/01/05 11:45:01;;;;;;;24.55;5.75;;;;;;;;;;5002405;28;20034;-60
2023/01/05 11:47:44;;;;;;;21.00;4.63;;;;;;;;;;5044701;28;20041;-60
2023/01/05 11:50:12;;;;;;;31.98;5.13;;;;;;;;;;5067817;28;20032;-60
2023/01/05 11:52:48;;;;;;;24.92;5.25;;;;;;;;;;5069099;28;20108;-60
2023/01/05 11:55:22;;;;;;;16.80;4.07;;;;;;;;;;5092606;28;20021;-59
2023/01/05 11:57:52;;;;;;;21.90;5.43;;;;;;;;;;5050076;28;1102929;-60
2023/01/05 12:00:25;;;;;;;20.47;4.67;;;;;;;;;;5074441;28;20045;-59
2023/01/05 12:03:15;;;;;;;24.77;4.93;;;;;;;;;;5072278;28;20407;-59
2023/01/05 12:05:58;;;;;;;19.38;4.72;;;;;;;;;;5073279;28;20055;-59
2023/01/05 12:08:57;;;;;;;17.83;4.18;;;;;;;;;;5073329;28;20044;-60
2023/01/05 12:11:23;;;;;;;19.05;3.72;;;;;;;;;;5072152;28;20538;-60
2023/01/05 12:13:55;;;;;;;23.42;5.18;;;;;;;;;;5071860;28;20035;-60
2023/01/05 12:16:42;;;;;;;22.55;5.72;;;;;;;;;;5071714;28;20025;-60
2023/01/05 12:19:27;;;;;;;14.73;4.13;;;;;;;;;;5072370;28;20032;-60
2023/01/05 12:22:11;;;;;;;19.13;3.80;;;;;;;;;;5066244;28;20123;-60
2023/01/05 12:24:52;;;;;;;16.65;4.82;;;;;;;;;;5093179;28;20123;-60
2023/01/05 12:27:59;;;;;;;17.45;4.05;;;;;;;;;;5090909;28;20046;-60
2023/01/05 12:30:38;;;;;;;18.60;4.35;;;;;;;;;;5010818;28;20034;-60
2023/01/05 12:33:20;;;;;;;18.02;4.40;;;;;;;;;;5078343;28;20044;-59
2023/01/05 12:36:03;;;;;;;21.27;4.40;;;;;;;;;;5072160;28;20162;-61
2023/01/05 12:38:50;;;;;;;14.40;3.90;;;;;;;;;;5091718;28;20410;-60
2023/01/05 12:41:47;;;;;;;12.07;3.20;;;;;;;;;;5072438;28;20043;-60
2023/01/05 12:44:36;;;;;;;25.95;4.28;;;;;;;;;;5082559;28;20453;-60
2023/01/05 12:47:10;;;;;;;26.20;4.80;;;;;;;;;;5082296;28;20258;-61
2023/01/05 12:50:02;;;;;;;21.00;4.07;;;;;;;;;;5061162;28;20046;-56
2023/01/05 12:52:42;;;;;;;18.80;4.50;;;;;;;;;;5061479;28;20135;-59
2023/01/05 12:55:16;;;;;;;24.00;4.93;;;;;;;;;;5074616;28;20029;-60
2023/01/05 12:57:47;;;;;;;19.85;5.32;;;;;;;;;;5070562;28;20114;-60
2023/01/05 13:00:18;;;;;;;19.67;3.95;;;;;;;;;;5070659;28;20079;-60
2023/01/05 13:02:52;;;;;;;27.98;5.53;;;;;;;;;;5071617;28;20040;-61
2023/01/05 13:05:22;;;;;;;18.95;3.58;;;;;;;;;;5068987;28;20470;-60
2023/01/05 13:08:06;;;;;;;18.07;4.37;;;;;;;;;;5071155;28;20040;-61
2023/01/05 13:10:50;;;;;;;27.38;5.43;;;;;;;;;;5085141;28;20280;-60
2023/01/05 13:13:22;;;;;;;19.35;4.72;;;;;;;;;;5082923;28;20047;-60
2023/01/05 13:16:08;;;;;;;19.02;4.68;;;;;;;;;;5066044;28;20025;-62
2023/01/05 13:18:36;;;;;;;21.25;4.00;;;;;;;;;;5070132;28;20037;-62
2023/01/05 13:21:04;;;;;;;17.90;4.10;;;;;;;;;;5065617;28;20044;-61
2023/01/05 13:23:52;;;;;;;17.38;4.57;;;;;;;;;;5072391;28;20495;-61
2023/01/05 13:26:20;;;;;;;22.92;4.25;;;;;;;;;;5071756;28;20066;-61
2023/01/05 13:28:47;;;;;;;23.92;7.93;;;;;;;;;;5070668;28;20086;-62
2023/01/05 13:31:34;;;;;;;16.13;4.25;;;;;;;;;;5074620;28;20035;-59
2023/01/05 13:34:25;;;;;;;19.63;4.47;;;;;;;;;;5091554;28;20028;-59
2023/01/05 13:37:34;;;;;;;18.67;4.22;;;;;;;;;;5066398;28;20040;-62
2023/01/05 13:40:23;;;;;;;25.23;6.40;;;;;;;;;;5050690;28;20071;-61
2023/01/05 13:43:00;;;;;;;21.58;3.97;;;;;;;;;;5045727;28;20052;-62
2023/01/05 13:45:43;;;;;;;18.90;4.13;;;;;;;;;;5051287;28;20421;-61
2023/01/05 13:48:24;;;;;;;14.93;3.67;;;;;;;;;;5075352;28;20555;-60
2023/01/05 13:51:02;;;;;;;17.00;3.50;;;;;;;;;;5083452;28;20028;-61
2023/01/05 13:53:28;;;;;;;19.23;3.85;;;;;;;;;;5059706;28;20043;-61
2023/01/05 13:56:01;;;;;;;22.45;4.22;;;;;;;;;;5054102;28;20037;-60
2023/01/05 13:58:47;;;;;;;19.02;4.13;;;;;;;;;;5069575;28;20137;-61
2023/01/05 14:01:15;;;;;;;22.00;4.22;;;;;;;;;;5067659;28;20063;-61
2023/01/05 14:03:49;;;;;;;21.77;3.70;;;;;;;;;;5067736;28;20032;-61
2023/01/05 14:06:22;;;;;;;17.83;3.85;;;;;;;;;;5071460;28;20147;-61
2023/01/05 14:08:53;;;;;;;17.67;3.88;;;;;;;;;;5068034;28;20028;-62
2023/01/05 14:11:24;;;;;;;16.45;3.67;;;;;;;;;;5070637;28;20039;-60
2023/01/05 14:13:52;;;;;;;;;;;;;;;;;;5068583;28;20033;-61
2023/01/05 14:16:38;;;;;;;14.38;3.28;;;;;;;;;;5071377;28;19919;-60
2023/01/05 14:19:18;;;;;;;17.98;3.45;;;;;;;;;;5083182;28;20044;-60
2023/01/05 14:21:50;;;;;;;19.35;3.45;;;;;;;;;;5051872;28;20033;-61
2023/01/05 14:24:35;;;;;;;20.17;3.33;;;;;;;;;;5064979;28;20033;-60
2023/01/05 14:27:09;;;;;;;28.23;4.22;;;;;;;;;;5074646;28;20035;-61
2023/01/05 14:29:46;;;;;;;13.55;3.13;;;;;;;;;;5053309;28;20029;-60
2023/01/05 14:32:13;;;;;;;13.93;3.67;;;;;;;;;;5066275;28;20052;-60
2023/01/05 14:34:47;;;;;;;14.40;3.20;;;;;;;;;;5069327;28;20032;-60
2023/01/05 14:37:22;;;;;;;17.42;3.97;;;;;;;;;;5063775;28;20033;-61
2023/01/05 14:39:51;;;;;;;13.90;3.67;;;;;;;;;;5068732;28;20059;-63
2023/01/05 14:42:38;;;;;;;18.83;3.53;;;;;;;;;;5086234;28;20035;-60
2023/01/05 14:45:08;;;;;;;15.93;3.17;;;;;;;;;;5076357;28;20525;-60
2023/01/05 14:47:44;;;;;;;18.17;3.47;;;;;;;;;;5083156;28;20060;-60
2023/01/05 14:50:35;;;;;;;20.08;3.20;;;;;;;;;;5080400;28;20035;-58
2023/01/05 14:53:14;;;;;;;13.88;3.10;;;;;;;;;;5090374;28;20433;-57
2023/01/05 14:55:59;;;;;;;16.58;3.65;;;;;;;;;;5092721;28;20038;-60
2023/01/05 14:58:46;;;;;;;20.42;3.63;;;;;;;;;;5093415;28;20101;-60
2023/01/05 15:01:19;;;;;;;17.77;3.83;;;;;;;;;;5080412;28;20041;-60
2023/01/05 15:04:02;;;;;;;17.30;3.35;;;;;;;;;;5052994;28;20025;-60
2023/01/05 15:07:05;;;;;;;22.35;4.25;;;;;;;;;;5064794;28;20040;-60
2023/01/05 15:10:04;;;;;;;16.83;3.83;;;;;;;;;;5086078;28;20586;-60
2023/01/05 15:12:29;;;;;;;22.70;5.60;;;;;;;;;;5074345;28;20089;-60
2023/01/05 15:15:29;;;;;;;22.98;5.57;;;;;;;;;;5073108;28;20063;-61
2023/01/05 15:18:15;;;;;;;16.42;4.68;;;;;;;;;;5067603;28;20079;-60
2023/01/05 15:20:46;;;;;;;14.23;4.57;;;;;;;;;;5081047;28;20131;-61
2023/01/05 15:23:27;;;;;;;;;;;;;;;;;;5067316;28;20047;-61
2023/01/05 15:26:14;;;;;;;23.52;5.03;;;;;;;;;;5072990;28;20288;-59
2023/01/05 15:29:07;;;;;;;22.25;4.32;;;;;;;;;;5064139;28;20035;-56